ePrivacy and GPDR Cookie Consent by Cookie Consent
EmailTwitter


Observations de surface / Québec / CYMX

Régions: Québec | Canada | États-Unis | Europe | France | UK | Ailleurs
Station
Affichage
Infos & localisation pour CYMX | Aide pour décoder les METARs

Observations prises le 2024-02-28 à 07H00 UTC à MONTREAL MIRABEL, QB (CYMX)

Etat du ciel: couvert.

Température: 4.0 Celsius

Point de rosée: 0.0 Celsius

Humidité relative: 75%

Vents: Nord-est à 6 km/h ou 3 noeuds.

Pression au niveau moyen de la mer: 100.28 kilopascals.

Calage altimétrique: 100.24 kilopascals ou 29.60 pouces de mercure.

Visibilité horizontale: 25.00 milles terrestres ou 40.00 kilomètres.

Hauteur du plafond: 1006 mètres ( 3300 pieds ).

Observation METAR:

CYMX 280700Z 04003KT 25SM OVC033 04/00 A2960 RMK SC8 SLP028=